Time;durP1;ratioP1;P1;durP2;ratioP2;P2;SDS_P1;SDS_P2;PMS_P1;PMS_P2;Temp;Humidity;BMP_temperature;BMP_pressure;BME280_temperature;BME280_humidity;BME280_pressure;Samples;Min_cycle;Max_cycle;Signal;HPM_P1;HPM_P2
2023/08/13 00:02:05;;;;;;;4.25;2.80;;;19.50;99.90;;;;;;5036840;28;20037;-40
2023/08/13 00:04:31;;;;;;;2.80;2.42;;;19.40;99.90;;;;;;5039269;28;20061;-32
2023/08/13 00:06:56;;;;;;;3.58;3.10;;;19.30;99.90;;;;;;5041900;28;20061;-34
2023/08/13 00:09:22;;;;;;;3.85;3.03;;;19.20;99.90;;;;;;5038042;28;20114;-30
2023/08/13 00:11:48;;;;;;;3.35;2.88;;;19.10;99.90;;;;;;5039866;28;21417;-32
2023/08/13 00:14:13;;;;;;;5.35;3.05;;;19.20;99.90;;;;;;5039433;28;20025;-32
2023/08/13 00:16:39;;;;;;;4.78;3.15;;;19.20;99.90;;;;;;5043179;28;20040;-30
2023/08/13 00:19:04;;;;;;;4.05;3.28;;;19.10;99.90;;;;;;5041451;28;20028;-30
2023/08/13 00:21:30;;;;;;;4.82;3.28;;;19.10;99.90;;;;;;5025254;28;20120;-31
2023/08/13 00:23:56;;;;;;;4.47;3.53;;;19.10;99.90;;;;;;5039393;28;20033;-33
2023/08/13 00:26:21;;;;;;;3.38;3.08;;;19.10;99.90;;;;;;5043508;28;20025;-31
2023/08/13 00:28:48;;;;;;;3.22;2.92;;;19.10;99.90;;;;;;5043055;28;20033;-31
2023/08/13 00:31:13;;;;;;;2.45;2.25;;;19.10;99.90;;;;;;5036054;28;20049;-34
2023/08/13 00:33:39;;;;;;;1.88;1.77;;;18.90;99.90;;;;;;5040083;28;20029;-30
2023/08/13 00:36:05;;;;;;;1.92;1.83;;;18.80;99.90;;;;;;5037611;28;20836;-34
2023/08/13 00:38:31;;;;;;;4.65;1.75;;;18.80;99.90;;;;;;5039834;28;20037;-32
2023/08/13 00:40:56;;;;;;;1.85;1.75;;;18.90;99.90;;;;;;5039701;28;20389;-32
2023/08/13 00:43:22;;;;;;;4.78;2.70;;;18.90;99.90;;;;;;5041991;28;20037;-34
2023/08/13 00:45:47;;;;;;;6.05;3.17;;;18.80;99.90;;;;;;5034948;28;20564;-31
2023/08/13 00:48:13;;;;;;;6.18;3.50;;;18.80;99.90;;;;;;5039044;28;20042;-32
2023/08/13 00:50:39;;;;;;;4.00;3.13;;;18.90;99.90;;;;;;5041533;28;20033;-34
2023/08/13 00:53:06;;;;;;;5.63;3.17;;;18.90;99.90;;;;;;5044214;28;20098;-31
2023/08/13 00:55:32;;;;;;;7.85;3.42;;;18.90;99.90;;;;;;5038114;28;20025;-32
2023/08/13 00:57:58;;;;;;;4.78;3.00;;;19.00;99.90;;;;;;5041426;28;20044;-34
2023/08/13 01:00:26;;;;;;;5.53;2.90;;;18.90;99.90;;;;;;5046747;28;20506;-41
2023/08/13 01:02:52;;;;;;;3.67;2.85;;;18.90;99.90;;;;;;5046152;28;20041;-41
2023/08/13 01:05:19;;;;;;;2.90;2.60;;;18.90;99.90;;;;;;5042475;28;20552;-41
2023/08/13 01:08:11;;;;;;;2.85;2.60;;;18.80;99.90;;;;;;5040042;28;20587;-38
2023/08/13 01:10:38;;;;;;;2.83;2.60;;;18.60;99.90;;;;;;5040988;28;20115;-40
2023/08/13 01:13:22;;;;;;;3.25;2.88;;;18.50;99.90;;;;;;5042027;28;20033;-41
2023/08/13 01:15:50;;;;;;;3.85;2.67;;;18.50;99.90;;;;;;5041852;28;20021;-41
2023/08/13 01:18:18;;;;;;;2.67;2.47;;;18.50;99.90;;;;;;5045948;28;20077;-40
2023/08/13 01:20:44;;;;;;;3.78;3.20;;;18.50;99.90;;;;;;5040454;28;20033;-41
2023/08/13 01:23:10;;;;;;;5.28;3.28;;;18.50;99.90;;;;;;5041974;28;20033;-41
2023/08/13 01:25:36;;;;;;;4.65;3.20;;;18.50;99.90;;;;;;5040005;28;20103;-39
2023/08/13 01:28:21;;;;;;;3.50;3.13;;;18.50;99.90;;;;;;5043420;28;20021;-41
2023/08/13 01:30:55;;;;;;;2.92;2.65;;;18.40;99.90;;;;;;5040934;28;20024;-42
2023/08/13 01:33:26;;;;;;;4.80;2.90;;;18.50;99.90;;;;;;5039490;28;20028;-40
2023/08/13 01:35:57;;;;;;;2.83;2.30;;;18.40;99.90;;;;;;5026844;28;20075;-41
2023/08/13 01:38:23;;;;;;;2.85;2.20;;;18.40;99.90;;;;;;5039086;28;20033;-39
2023/08/13 01:40:50;;;;;;;4.35;2.42;;;18.40;99.90;;;;;;5045256;28;20025;-41
2023/08/13 01:43:16;;;;;;;2.13;2.03;;;18.30;99.90;;;;;;5043206;28;20032;-39
2023/08/13 01:45:41;;;;;;;3.33;2.42;;;18.10;99.90;;;;;;5045347;28;20032;-40
2023/08/13 01:48:07;;;;;;;2.50;2.08;;;17.90;99.90;;;;;;5045648;28;20436;-40
2023/08/13 01:50:33;;;;;;;2.00;1.90;;;18.00;99.90;;;;;;5039153;28;20047;-40
2023/08/13 01:52:58;;;;;;;2.85;2.60;;;18.00;99.90;;;;;;5038769;28;20482;-39
2023/08/13 01:55:24;;;;;;;3.63;2.42;;;17.90;99.90;;;;;;5044587;28;20090;-39
2023/08/13 01:57:50;;;;;;;3.30;3.00;;;18.00;99.90;;;;;;5042380;28;20032;-40
2023/08/13 02:00:15;;;;;;;3.50;3.20;;;18.00;99.90;;;;;;5027266;28;20025;-39
2023/08/13 02:02:41;;;;;;;3.63;3.15;;;17.90;99.90;;;;;;5026897;28;20482;-39
2023/08/13 02:05:07;;;;;;;3.42;3.13;;;17.90;99.90;;;;;;5045503;28;20036;-41
2023/08/13 02:07:33;;;;;;;5.00;3.10;;;17.90;99.90;;;;;;5038512;28;20507;-41
2023/08/13 02:09:59;;;;;;;2.97;2.67;;;17.90;99.90;;;;;;5036138;28;20029;-40
2023/08/13 02:12:24;;;;;;;2.75;2.55;;;17.90;99.90;;;;;;5044069;28;20074;-39
2023/08/13 02:14:50;;;;;;;2.42;2.30;;;17.80;99.90;;;;;;5041290;28;20087;-37
2023/08/13 02:17:15;;;;;;;3.40;2.10;;;17.80;99.90;;;;;;5039392;28;20053;-35
2023/08/13 02:19:41;;;;;;;2.45;2.25;;;17.80;99.90;;;;;;5042160;28;20047;-35
2023/08/13 02:22:08;;;;;;;2.13;2.03;;;17.70;99.90;;;;;;5045906;28;20025;-32
2023/08/13 02:24:33;;;;;;;2.83;2.63;;;17.80;99.90;;;;;;5041908;28;20501;-34
2023/08/13 02:26:59;;;;;;;3.70;2.70;;;17.80;99.90;;;;;;5039613;28;20039;-35
2023/08/13 02:29:25;;;;;;;3.70;2.90;;;17.70;99.90;;;;;;5045637;28;20028;-32
2023/08/13 02:31:50;;;;;;;4.40;3.53;;;17.80;99.90;;;;;;5041121;28;20033;-34
2023/08/13 02:34:16;;;;;;;7.03;3.60;;;17.80;99.90;;;;;;5042166;28;20086;-34
2023/08/13 02:36:41;;;;;;;3.33;3.03;;;17.80;99.90;;;;;;5039904;28;20067;-34
2023/08/13 02:39:07;;;;;;;4.05;3.15;;;17.80;99.90;;;;;;5040953;28;20029;-32
2023/08/13 02:41:33;;;;;;;3.35;2.60;;;17.80;99.90;;;;;;5039666;28;20552;-33
2023/08/13 02:43:58;;;;;;;3.45;2.55;;;17.80;99.90;;;;;;5037601;28;20929;-33
2023/08/13 02:46:25;;;;;;;2.80;2.40;;;17.80;99.90;;;;;;5041793;28;20604;-33
2023/08/13 02:48:54;;;;;;;2.92;2.72;;;17.70;99.90;;;;;;5043094;28;20025;-32
2023/08/13 02:51:20;;;;;;;2.63;2.42;;;17.70;99.90;;;;;;5040734;28;20025;-34
2023/08/13 02:53:46;;;;;;;2.70;2.50;;;17.70;99.90;;;;;;5042891;28;20563;-35
2023/08/13 02:56:12;;;;;;;4.35;2.28;;;17.70;99.90;;;;;;5024521;28;20031;-33
2023/08/13 02:58:37;;;;;;;5.68;3.13;;;17.70;99.90;;;;;;5035692;28;20690;-32
2023/08/13 03:01:03;;;;;;;4.35;2.80;;;17.70;99.90;;;;;;5040265;28;20550;-33
2023/08/13 03:03:29;;;;;;;4.38;3.30;;;17.70;99.90;;;;;;5039202;28;20449;-32
2023/08/13 03:05:55;;;;;;;4.53;2.90;;;17.60;99.90;;;;;;5043105;28;20521;-34
2023/08/13 03:08:20;;;;;;;3.25;2.95;;;17.50;99.90;;;;;;5040689;28;20033;-33
2023/08/13 03:10:46;;;;;;;2.63;2.40;;;17.50;99.90;;;;;;5040661;28;20040;-33
2023/08/13 03:13:12;;;;;;;2.25;2.15;;;17.50;99.90;;;;;;5037350;28;20511;-36
2023/08/13 03:15:37;;;;;;;1.90;1.80;;;17.60;99.90;;;;;;5040656;28;20139;-32
2023/08/13 03:18:03;;;;;;;3.05;1.80;;;17.40;99.90;;;;;;5039984;28;20050;-33
2023/08/13 03:20:29;;;;;;;2.58;1.98;;;17.40;99.90;;;;;;5039301;28;20119;-38
2023/08/13 03:22:54;;;;;;;2.67;1.85;;;17.40;99.90;;;;;;5038952;28;20502;-33
2023/08/13 03:25:20;;;;;;;2.75;2.40;;;17.30;99.90;;;;;;5043986;28;20036;-41
2023/08/13 03:27:48;;;;;;;2.63;2.42;;;17.10;99.90;;;;;;5042878;28;20036;-37
2023/08/13 03:30:13;;;;;;;2.67;2.47;;;17.00;99.90;;;;;;5038980;28;20068;-41
2023/08/13 03:32:39;;;;;;;2.83;2.45;;;16.80;99.90;;;;;;5042885;28;20069;-42
2023/08/13 03:35:05;;;;;;;3.47;2.90;;;16.80;99.90;;;;;;5040627;28;20094;-40
2023/08/13 03:37:30;;;;;;;2.95;2.50;;;16.90;99.90;;;;;;5041591;28;20486;-39
2023/08/13 03:39:56;;;;;;;3.03;2.53;;;17.00;99.90;;;;;;5036476;28;20514;-40
2023/08/13 03:42:22;;;;;;;2.88;2.47;;;17.00;99.90;;;;;;5041340;28;20029;-38
2023/08/13 03:44:47;;;;;;;4.50;3.00;;;17.10;99.90;;;;;;5039096;28;20091;-41
2023/08/13 03:47:13;;;;;;;6.57;3.60;;;17.20;99.90;;;;;;5037474;28;20117;-42
2023/08/13 03:49:38;;;;;;;3.60;3.30;;;17.30;99.90;;;;;;5035870;28;20034;-41
2023/08/13 03:52:04;;;;;;;4.75;3.70;;;17.30;99.90;;;;;;5041530;28;20120;-42
2023/08/13 03:54:30;;;;;;;8.30;4.15;;;17.20;99.90;;;;;;5036281;28;20031;-39
2023/08/13 03:56:56;;;;;;;5.57;4.05;;;17.10;99.90;;;;;;5035995;28;20078;-40
2023/08/13 03:59:21;;;;;;;4.63;3.90;;;17.20;99.90;;;;;;5036563;28;20028;-41
2023/08/13 04:01:47;;;;;;;5.05;2.85;;;17.20;99.90;;;;;;5041999;28;20115;-41
2023/08/13 04:04:13;;;;;;;3.58;2.53;;;17.20;99.90;;;;;;5039904;28;20032;-40
2023/08/13 04:06:38;;;;;;;2.83;2.63;;;17.20;99.90;;;;;;5024815;28;20037;-41
2023/08/13 04:09:05;;;;;;;3.53;2.67;;;17.10;99.90;;;;;;5043559;28;20025;-41
2023/08/13 04:11:30;;;;;;;3.20;2.90;;;16.80;99.90;;;;;;5037484;28;20040;-41
2023/08/13 04:13:56;;;;;;;4.35;3.10;;;16.80;99.90;;;;;;5038874;28;20768;-41
2023/08/13 04:16:22;;;;;;;4.22;3.00;;;16.80;99.90;;;;;;5024210;28;20036;-40
2023/08/13 04:18:50;;;;;;;7.55;3.58;;;16.90;99.90;;;;;;5039069;28;21297;-41
2023/08/13 04:21:15;;;;;;;4.55;4.00;;;16.80;99.90;;;;;;5041850;28;20527;-39
2023/08/13 04:23:41;;;;;;;4.95;3.75;;;16.70;99.90;;;;;;5036938;28;20040;-41
2023/08/13 04:26:07;;;;;;;5.10;3.88;;;16.80;99.90;;;;;;5044282;28;20538;-41
2023/08/13 04:28:33;;;;;;;5.55;4.10;;;16.80;99.90;;;;;;5042380;28;20028;-41
2023/08/13 04:30:59;;;;;;;5.85;3.75;;;16.90;99.90;;;;;;5027520;28;20808;-39
2023/08/13 04:33:24;;;;;;;7.55;4.15;;;17.00;99.90;;;;;;5043928;28;20033;-39
2023/08/13 04:35:54;;;;;;;6.22;3.83;;;17.00;99.90;;;;;;5047254;28;20029;-31
2023/08/13 04:38:20;;;;;;;5.53;4.20;;;17.00;99.90;;;;;;5040737;28;20116;-31
2023/08/13 04:40:47;;;;;;;6.88;4.13;;;17.10;99.90;;;;;;5048122;28;20059;-31
2023/08/13 04:43:14;;;;;;;8.05;4.57;;;17.10;99.90;;;;;;5043701;28;20097;-33
2023/08/13 04:45:40;;;;;;;6.88;4.20;;;17.10;99.90;;;;;;5047947;28;20068;-32
2023/08/13 04:48:06;;;;;;;7.95;3.63;;;17.20;99.90;;;;;;5046294;28;20117;-31
2023/08/13 04:50:32;;;;;;;4.00;3.58;;;17.20;99.90;;;;;;5044202;28;20578;-33
2023/08/13 04:52:58;;;;;;;5.72;3.78;;;17.30;99.90;;;;;;5045827;28;20025;-31
2023/08/13 04:55:23;;;;;;;5.63;4.03;;;17.30;99.90;;;;;;5047709;28;20033;-34
2023/08/13 04:57:49;;;;;;;5.28;4.40;;;17.30;99.90;;;;;;5045220;28;20601;-32
2023/08/13 05:00:15;;;;;;;6.57;5.15;;;17.30;99.90;;;;;;5045323;28;20024;-33
2023/08/13 05:02:41;;;;;;;7.63;4.85;;;17.30;99.90;;;;;;5044087;28;20036;-32
2023/08/13 05:05:06;;;;;;;7.47;5.65;;;17.30;99.90;;;;;;5046941;28;20496;-32
2023/08/13 05:07:32;;;;;;;8.05;6.05;;;17.30;99.90;;;;;;5041853;28;20087;-35
2023/08/13 05:09:58;;;;;;;8.65;5.90;;;17.30;99.90;;;;;;5046740;28;20032;-32
2023/08/13 05:12:23;;;;;;;6.82;6.13;;;17.40;99.90;;;;;;5045491;28;20025;-32
2023/08/13 05:14:49;;;;;;;8.13;6.03;;;17.50;99.90;;;;;;5043723;28;20034;-31
2023/08/13 05:17:18;;;;;;;10.45;6.97;;;17.70;99.90;;;;;;5043537;28;20059;-33
2023/08/13 05:19:44;;;;;;;9.18;6.93;;;17.70;99.90;;;;;;5043289;28;20122;-31
2023/08/13 05:22:10;;;;;;;9.02;7.22;;;17.70;99.90;;;;;;5044699;28;20029;-32
2023/08/13 05:24:35;;;;;;;10.98;7.38;;;17.70;99.90;;;;;;5038045;28;20029;-32
2023/08/13 05:27:01;;;;;;;7.95;6.43;;;17.80;99.90;;;;;;5045354;28;20033;-33
2023/08/13 05:29:26;;;;;;;8.48;6.68;;;17.90;99.90;;;;;;5045114;28;20044;-32
2023/08/13 05:31:53;;;;;;;10.23;7.53;;;18.00;99.90;;;;;;5043819;28;20036;-33
2023/08/13 05:34:19;;;;;;;10.32;8.43;;;18.10;99.90;;;;;;5042117;28;20040;-30
2023/08/13 05:36:44;;;;;;;12.02;9.65;;;18.10;99.90;;;;;;5043009;28;20029;-35
2023/08/13 05:39:10;;;;;;;12.02;9.48;;;18.00;99.90;;;;;;5044652;28;20132;-34
2023/08/13 05:41:36;;;;;;;16.08;11.38;;;17.90;99.90;;;;;;5046615;28;20052;-35
2023/08/13 05:44:02;;;;;;;14.35;10.38;;;18.00;99.90;;;;;;5040856;28;20513;-38
2023/08/13 05:46:28;;;;;;;13.00;9.20;;;18.00;99.90;;;;;;5043049;28;20433;-42
2023/08/13 05:48:54;;;;;;;11.95;8.90;;;18.10;99.90;;;;;;5042004;28;20028;-42
2023/08/13 05:51:20;;;;;;;14.15;9.88;;;18.10;99.90;;;;;;5042524;28;20029;-37
2023/08/13 05:53:45;;;;;;;11.30;8.65;;;18.30;99.90;;;;;;5040692;28;20024;-41
2023/08/13 05:56:11;;;;;;;10.38;8.95;;;18.40;99.90;;;;;;5046067;28;20029;-39
2023/08/13 05:58:36;;;;;;;11.23;8.15;;;18.50;99.90;;;;;;5040310;28;20033;-40
2023/08/13 06:01:03;;;;;;;11.80;8.13;;;18.60;99.90;;;;;;5043430;28;20067;-40
2023/08/13 06:03:28;;;;;;;10.00;8.48;;;18.70;99.90;;;;;;5039526;28;20506;-42
2023/08/13 06:05:55;;;;;;;12.77;9.50;;;18.80;99.90;;;;;;5040748;28;20119;-42
2023/08/13 06:08:20;;;;;;;12.75;9.50;;;19.10;99.90;;;;;;5037442;28;20029;-39
2023/08/13 06:10:46;;;;;;;10.25;8.32;;;19.20;99.90;;;;;;5039575;28;20032;-41
2023/08/13 06:13:12;;;;;;;11.05;9.23;;;19.40;99.90;;;;;;5040985;28;20021;-40
2023/08/13 06:15:38;;;;;;;12.20;9.48;;;19.40;99.90;;;;;;5043506;28;20035;-40
2023/08/13 06:18:04;;;;;;;11.18;8.82;;;19.60;99.90;;;;;;5044635;28;20053;-42
2023/08/13 06:20:31;;;;;;;11.32;9.57;;;19.70;99.90;;;;;;5040184;28;20037;-41
2023/08/13 06:22:57;;;;;;;10.18;8.82;;;19.90;99.90;;;;;;5042125;28;20127;-41
2023/08/13 06:25:22;;;;;;;9.10;8.23;;;20.10;99.90;;;;;;5042254;28;20475;-42
2023/08/13 06:27:48;;;;;;;11.85;9.77;;;20.30;99.90;;;;;;5042050;28;20087;-40
2023/08/13 06:30:14;;;;;;;12.43;8.85;;;20.40;99.90;;;;;;5041310;28;20109;-42
2023/08/13 06:32:39;;;;;;;13.82;8.90;;;20.50;99.90;;;;;;5040999;28;20051;-42
2023/08/13 06:35:05;;;;;;;9.70;8.65;;;20.50;99.90;;;;;;5042551;28;20034;-41
2023/08/13 06:37:31;;;;;;;12.55;8.63;;;20.60;99.90;;;;;;5039529;28;20037;-41
2023/08/13 06:39:57;;;;;;;11.02;8.13;;;20.70;99.90;;;;;;5039453;28;20363;-41
2023/08/13 06:42:23;;;;;;;10.90;8.68;;;20.80;99.90;;;;;;5041289;28;20520;-39
2023/08/13 06:44:49;;;;;;;9.07;7.75;;;20.90;99.90;;;;;;5038220;28;20060;-39
2023/08/13 06:47:15;;;;;;;9.13;7.88;;;20.90;99.90;;;;;;5039429;28;20021;-41
2023/08/13 06:49:40;;;;;;;9.73;7.50;;;21.00;99.90;;;;;;5035363;28;20029;-40
2023/08/13 06:52:06;;;;;;;9.30;7.72;;;20.90;99.90;;;;;;5040714;28;20561;-41
2023/08/13 06:54:32;;;;;;;10.20;8.30;;;20.90;99.90;;;;;;5039023;28;20048;-42
2023/08/13 06:56:58;;;;;;;10.45;8.10;;;20.90;99.90;;;;;;5038704;28;20471;-41
2023/08/13 06:59:24;;;;;;;9.20;8.10;;;20.90;99.90;;;;;;5043543;28;20036;-41
2023/08/13 07:01:50;;;;;;;11.30;8.27;;;20.80;99.90;;;;;;5041280;28;20132;-41
2023/08/13 07:04:16;;;;;;;9.43;8.10;;;20.80;99.90;;;;;;5037660;28;20106;-37
2023/08/13 07:06:41;;;;;;;8.70;7.25;;;21.00;99.90;;;;;;5038693;28;20645;-42
2023/08/13 07:09:07;;;;;;;8.60;7.32;;;21.20;99.90;;;;;;5043036;28;20021;-42
2023/08/13 07:11:33;;;;;;;8.27;6.70;;;21.40;99.90;;;;;;5023958;28;20029;-38
2023/08/13 07:13:59;;;;;;;9.30;6.65;;;21.60;99.90;;;;;;5037866;28;20033;-42
2023/08/13 07:16:24;;;;;;;8.57;7.03;;;21.60;99.90;;;;;;5025239;28;20452;-40
2023/08/13 07:18:50;;;;;;;10.32;7.07;;;21.70;99.90;;;;;;5042360;28;20079;-41
2023/08/13 07:21:16;;;;;;;6.57;5.28;;;21.70;99.90;;;;;;5038376;28;20919;-41
2023/08/13 07:23:42;;;;;;;6.47;5.45;;;21.70;99.90;;;;;;5039975;28;20033;-41
2023/08/13 07:26:07;;;;;;;7.60;5.07;;;21.90;99.90;;;;;;5043115;28;20116;-36
2023/08/13 07:28:34;;;;;;;6.43;4.93;;;22.10;99.90;;;;;;5038102;28;20041;-41
2023/08/13 07:31:03;;;;;;;5.82;4.25;;;22.10;99.90;;;;;;5036938;28;20131;-41
2023/08/13 07:33:30;;;;;;;5.18;4.68;;;22.30;99.90;;;;;;5036768;28;20032;-42
2023/08/13 07:35:57;;;;;;;6.33;4.77;;;22.60;99.90;;;;;;5039325;28;20029;-36
2023/08/13 07:38:23;;;;;;;6.68;4.72;;;22.60;99.90;;;;;;5037921;28;20083;-40
2023/08/13 07:40:48;;;;;;;5.72;4.68;;;22.60;99.90;;;;;;5032934;28;20036;-41
2023/08/13 07:43:14;;;;;;;6.93;5.20;;;22.50;99.90;;;;;;5034488;28;20040;-42
2023/08/13 07:45:39;;;;;;;6.05;5.00;;;22.60;99.90;;;;;;5036350;28;22122;-42
2023/08/13 07:48:05;;;;;;;6.00;5.07;;;22.70;99.90;;;;;;5035733;28;20040;-42
2023/08/13 07:50:31;;;;;;;5.32;4.82;;;22.80;99.90;;;;;;5042391;28;20030;-40
2023/08/13 07:52:57;;;;;;;7.47;5.25;;;22.70;99.90;;;;;;5040786;28;20025;-41
2023/08/13 07:55:22;;;;;;;6.35;5.47;;;22.60;99.90;;;;;;5039140;28;20079;-39
2023/08/13 07:57:48;;;;;;;7.03;4.93;;;22.50;99.90;;;;;;5024382;28;20064;-41
2023/08/13 08:00:16;;;;;;;5.45;4.88;;;22.60;99.90;;;;;;5039019;28;20159;-41
2023/08/13 08:02:42;;;;;;;5.18;4.68;;;22.90;99.90;;;;;;5037320;28;20037;-40
2023/08/13 08:05:08;;;;;;;7.00;4.78;;;23.20;99.90;;;;;;5041937;28;20043;-31
2023/08/13 08:07:35;;;;;;;5.95;5.18;;;23.50;99.90;;;;;;5038842;28;20048;-31
2023/08/13 08:10:00;;;;;;;7.25;5.57;;;23.50;99.90;;;;;;5041142;28;20021;-33
2023/08/13 08:12:26;;;;;;;5.47;4.95;;;23.50;99.90;;;;;;5042650;28;20166;-31
2023/08/13 08:14:52;;;;;;;6.13;4.95;;;23.60;99.90;;;;;;5039171;28;20037;-32
2023/08/13 08:17:17;;;;;;;6.05;5.43;;;23.60;99.90;;;;;;5040557;28;20080;-31
2023/08/13 08:19:43;;;;;;;6.65;4.85;;;23.80;99.90;;;;;;5023607;28;20454;-31
2023/08/13 08:22:09;;;;;;;5.47;4.72;;;24.00;99.90;;;;;;5039992;28;20060;-31
2023/08/13 08:24:34;;;;;;;6.25;4.97;;;24.20;99.90;;;;;;5037136;28;20064;-31
2023/08/13 08:27:00;;;;;;;8.15;4.93;;;24.40;99.90;;;;;;5025939;28;20465;-34
2023/08/13 08:29:26;;;;;;;5.88;4.53;;;24.50;99.90;;;;;;5042535;28;20025;-33
2023/08/13 08:31:51;;;;;;;5.50;4.93;;;24.40;99.90;;;;;;5042247;28;20087;-31
2023/08/13 08:34:17;;;;;;;5.80;4.57;;;24.40;99.90;;;;;;5038467;28;20029;-37
2023/08/13 08:36:43;;;;;;;7.00;4.45;;;24.60;99.90;;;;;;5039971;28;20021;-31
2023/08/13 08:39:08;;;;;;;7.63;4.57;;;24.50;99.90;;;;;;5041233;28;20033;-31
2023/08/13 08:41:36;;;;;;;4.60;4.00;;;24.50;99.90;;;;;;5040975;28;20029;-32
2023/08/13 08:44:02;;;;;;;4.85;4.18;;;24.60;99.90;;;;;;5039401;28;20049;-31
2023/08/13 08:46:28;;;;;;;5.43;4.13;;;25.00;99.90;;;;;;5038918;28;20068;-31
2023/08/13 08:48:55;;;;;;;5.05;4.50;;;24.90;99.90;;;;;;5042788;28;20029;-32
2023/08/13 08:51:21;;;;;;;5.75;4.82;;;24.90;99.90;;;;;;5040096;28;20025;-37
2023/08/13 08:53:49;;;;;;;4.75;4.35;;;25.00;99.90;;;;;;5040632;28;20040;-32
2023/08/13 08:56:15;;;;;;;5.53;4.68;;;25.10;99.90;;;;;;5043481;28;20114;-30
2023/08/13 08:58:40;;;;;;;4.40;3.95;;;25.10;99.90;;;;;;5041028;28;20482;-32
2023/08/13 09:01:07;;;;;;;6.03;4.50;;;25.20;99.90;;;;;;5039117;28;20037;-31
2023/08/13 09:03:32;;;;;;;6.10;4.10;;;25.20;99.90;;;;;;5038665;28;20500;-32
2023/08/13 09:05:58;;;;;;;5.50;3.85;;;25.20;99.90;;;;;;5042075;28;20025;-31
2023/08/13 09:08:25;;;;;;;4.47;3.90;;;25.50;99.90;;;;;;5036053;28;20538;-33
2023/08/13 09:10:51;;;;;;;5.53;4.43;;;25.60;99.90;;;;;;5042041;28;20040;-31
2023/08/13 09:13:16;;;;;;;4.60;4.10;;;25.40;99.90;;;;;;5041585;28;20036;-36
2023/08/13 09:15:48;;;;;;;5.85;4.20;;;25.20;99.90;;;;;;5042153;28;20537;-37
2023/08/13 09:18:14;;;;;;;5.68;4.32;;;25.20;99.90;;;;;;5043778;28;20581;-41
2023/08/13 09:20:45;;;;;;;6.60;4.22;;;25.50;99.90;;;;;;5042935;28;20033;-43
2023/08/13 09:23:18;;;;;;;4.75;4.35;;;25.80;99.90;;;;;;5039320;28;20132;-41
2023/08/13 09:25:44;;;;;;;4.43;3.70;;;25.60;99.90;;;;;;5041741;28;20083;-42
2023/08/13 09:28:12;;;;;;;4.88;4.00;;;25.40;99.90;;;;;;5028416;28;20028;-41
2023/08/13 09:30:39;;;;;;;5.82;3.85;;;25.50;99.90;;;;;;5040903;28;20041;-40
2023/08/13 09:33:05;;;;;;;4.30;3.90;;;25.70;99.90;;;;;;5041323;28;20033;-37
2023/08/13 09:35:31;;;;;;;6.25;4.22;;;25.90;99.90;;;;;;5040357;28;20478;-41
2023/08/13 09:37:57;;;;;;;5.78;4.18;;;26.20;99.90;;;;;;5038365;28;20036;-40
2023/08/13 09:40:23;;;;;;;5.93;4.25;;;26.20;99.90;;;;;;5043133;28;20771;-43
2023/08/13 09:42:53;;;;;;;4.80;3.95;;;26.20;99.90;;;;;;5046188;28;20033;-40
2023/08/13 09:45:20;;;;;;;6.00;3.80;;;26.00;99.90;;;;;;5037441;28;20033;-42
2023/08/13 09:47:48;;;;;;;5.18;4.32;;;25.80;99.90;;;;;;5037685;28;20339;-37
2023/08/13 09:50:17;;;;;;;6.05;4.43;;;25.80;99.90;;;;;;5043985;28;20067;-39
2023/08/13 09:52:47;;;;;;;5.30;4.38;;;25.70;99.90;;;;;;5044067;28;20029;-41
2023/08/13 09:55:15;;;;;;;5.13;4.20;;;25.70;99.90;;;;;;5038469;28;20073;-41
2023/08/13 09:57:43;;;;;;;4.75;4.03;;;25.60;99.90;;;;;;5042196;28;20379;-40
2023/08/13 10:00:10;;;;;;;;;;;25.60;99.90;;;;;;5041306;28;20069;-41
2023/08/13 10:02:35;;;;;;;4.50;4.10;;;25.70;99.90;;;;;;5036708;28;20263;-41
2023/08/13 10:05:03;;;;;;;4.93;4.30;;;25.80;99.90;;;;;;5039015;28;20044;-41
2023/08/13 10:07:29;;;;;;;4.65;4.13;;;25.80;99.90;;;;;;5043465;28;20554;-37
2023/08/13 10:09:54;;;;;;;4.75;3.88;;;25.90;99.90;;;;;;5042878;28;20116;-41
2023/08/13 10:12:21;;;;;;;5.53;3.65;;;26.20;99.90;;;;;;5040178;28;21720;-43
2023/08/13 10:14:48;;;;;;;5.63;4.07;;;26.50;99.90;;;;;;5041802;28;20055;-40
2023/08/13 10:17:18;;;;;;;4.22;3.85;;;26.60;99.90;;;;;;5041210;28;20275;-43
2023/08/13 10:19:49;;;;;;;7.88;4.40;;;26.50;99.90;;;;;;5043810;28;20048;-39
2023/08/13 10:22:34;;;;;;;5.07;3.95;;;26.40;99.90;;;;;;5038809;28;20029;-40
2023/08/13 10:25:00;;;;;;;6.15;4.13;;;26.40;99.90;;;;;;5041481;28;20040;-33
2023/08/13 10:27:27;;;;;;;4.18;3.78;;;26.50;99.90;;;;;;5041319;28;20423;-31
2023/08/13 10:30:09;;;;;;;5.50;3.85;;;26.50;99.90;;;;;;5042853;28;20064;-33
2023/08/13 10:32:46;;;;;;;5.70;3.95;;;26.50;99.90;;;;;;5040836;28;20041;-31
2023/08/13 10:35:39;;;;;;;6.00;4.18;;;26.70;99.90;;;;;;5046225;28;20021;-40
2023/08/13 10:38:05;;;;;;;4.82;3.53;;;26.70;99.90;;;;;;5040158;28;20443;-42
2023/08/13 10:40:32;;;;;;;3.97;3.57;;;26.60;99.90;;;;;;5041297;28;20032;-38
2023/08/13 10:43:04;;;;;;;5.15;3.33;;;26.60;99.90;;;;;;5039151;28;20059;-41
2023/08/13 10:45:35;;;;;;;3.45;3.15;;;26.90;99.90;;;;;;5041048;28;20040;-41
2023/08/13 10:48:02;;;;;;;3.60;3.30;;;26.90;99.90;;;;;;5043402;28;20117;-41
2023/08/13 10:50:41;;;;;;;4.05;3.67;;;27.20;99.90;;;;;;5023374;28;20118;-42
2023/08/13 10:53:19;;;;;;;4.30;3.60;;;27.40;99.90;;;;;;5040072;28;20037;-41
2023/08/13 10:55:48;;;;;;;4.03;3.10;;;27.10;99.90;;;;;;5043568;28;20536;-39
2023/08/13 10:58:25;;;;;;;6.15;3.83;;;27.10;99.90;;;;;;5040535;28;20056;-40
2023/08/13 11:00:51;;;;;;;7.28;3.60;;;27.20;99.90;;;;;;5038760;28;20025;-42
2023/08/13 11:03:22;;;;;;;4.25;3.58;;;27.50;99.90;;;;;;5040259;28;20870;-41
2023/08/13 11:05:49;;;;;;;5.82;3.28;;;27.50;99.90;;;;;;5044281;28;20552;-35
2023/08/13 11:08:17;;;;;;;5.70;3.25;;;27.50;99.90;;;;;;5039786;28;20022;-42
2023/08/13 11:10:44;;;;;;;;;;;27.60;99.90;;;;;;5044873;28;20029;-41
2023/08/13 11:13:11;;;;;;;4.47;3.40;;;27.50;99.90;;;;;;5042010;28;19917;-42
2023/08/13 11:15:37;;;;;;;4.38;3.10;;;27.40;99.90;;;;;;5039740;28;20120;-39
2023/08/13 11:18:03;;;;;;;4.35;3.22;;;27.30;99.90;;;;;;5037952;28;20131;-42
2023/08/13 11:20:28;;;;;;;3.25;2.97;;;27.70;99.90;;;;;;5039159;28;20110;-42
2023/08/13 11:22:54;;;;;;;3.50;3.08;;;28.30;99.90;;;;;;5039191;28;20608;-42
2023/08/13 11:25:20;;;;;;;3.47;3.15;;;27.70;99.90;;;;;;5041772;28;20036;-42
2023/08/13 11:27:46;;;;;;;5.50;3.45;;;27.30;99.90;;;;;;5042593;28;20037;-42
2023/08/13 11:30:12;;;;;;;4.72;3.30;;;27.10;99.90;;;;;;5040627;28;20033;-42
2023/08/13 11:32:38;;;;;;;4.60;3.63;;;27.40;99.90;;;;;;5036759;28;20094;-39
2023/08/13 11:35:09;;;;;;;4.88;3.50;;;27.80;99.90;;;;;;5040185;28;20483;-41
2023/08/13 11:37:36;;;;;;;4.00;2.90;;;27.90;99.90;;;;;;5042864;28;20111;-42
2023/08/13 11:40:05;;;;;;;3.40;3.10;;;27.80;99.90;;;;;;5043663;28;20724;-41
2023/08/13 11:42:31;;;;;;;3.92;3.35;;;27.70;99.90;;;;;;5038444;28;20779;-41
2023/08/13 11:44:56;;;;;;;3.90;3.15;;;27.80;99.90;;;;;;5037991;28;20037;-42
2023/08/13 11:47:26;;;;;;;5.05;3.25;;;27.90;99.90;;;;;;5040942;28;20706;-40
2023/08/13 11:49:54;;;;;;;3.58;2.80;;;27.90;99.90;;;;;;5041008;28;20575;-39
2023/08/13 11:52:21;;;;;;;4.30;3.55;;;27.90;99.90;;;;;;5037319;28;20056;-40
2023/08/13 11:54:47;;;;;;;4.32;3.30;;;28.20;99.90;;;;;;5043561;28;20017;-40
2023/08/13 11:57:14;;;;;;;3.40;2.92;;;28.60;99.90;;;;;;5038490;28;20040;-41
2023/08/13 11:59:40;;;;;;;4.72;3.22;;;29.20;99.90;;;;;;5039048;28;20045;-41
2023/08/13 12:02:05;;;;;;;4.70;3.05;;;29.00;99.90;;;;;;5036115;28;20039;-42
2023/08/13 12:04:32;;;;;;;4.35;3.03;;;28.60;99.90;;;;;;5042758;28;20075;-40
2023/08/13 12:06:58;;;;;;;7.43;3.30;;;28.30;99.90;;;;;;5038501;28;20063;-42
2023/08/13 12:09:24;;;;;;;3.80;3.50;;;28.10;99.90;;;;;;5042846;28;20481;-41
2023/08/13 12:11:52;;;;;;;3.42;3.13;;;28.10;99.90;;;;;;5039703;28;20036;-42
2023/08/13 12:14:18;;;;;;;5.35;3.20;;;28.10;99.90;;;;;;5038870;28;20029;-41
2023/08/13 12:16:44;;;;;;;4.25;3.03;;;28.40;99.90;;;;;;5036182;28;20048;-40
2023/08/13 12:19:09;;;;;;;4.05;3.47;;;28.80;99.90;;;;;;5035460;28;20041;-41
2023/08/13 12:21:36;;;;;;;4.30;2.85;;;28.60;99.90;;;;;;5034766;28;21778;-41
2023/08/13 12:24:04;;;;;;;3.97;3.35;;;28.70;99.90;;;;;;5040118;28;20142;-39
2023/08/13 12:26:30;;;;;;;4.40;3.00;;;28.70;99.90;;;;;;5037806;28;20029;-40
2023/08/13 12:28:56;;;;;;;5.50;3.28;;;28.60;99.90;;;;;;5040513;28;20745;-35
2023/08/13 12:31:22;;;;;;;4.28;2.92;;;28.30;99.90;;;;;;5033432;28;20042;-39
2023/08/13 12:33:48;;;;;;;5.20;3.13;;;28.20;99.90;;;;;;5037439;28;20569;-40
2023/08/13 12:36:14;;;;;;;3.75;2.83;;;28.50;99.90;;;;;;5039279;28;20021;-41
2023/08/13 12:38:40;;;;;;;3.45;3.03;;;28.80;99.90;;;;;;5029129;28;20035;-36
2023/08/13 12:41:06;;;;;;;3.80;2.83;;;28.90;99.90;;;;;;5027448;28;20152;-43
2023/08/13 12:43:34;;;;;;;3.25;2.90;;;29.10;99.90;;;;;;5033068;28;20033;-37